Time;durP1;ratioP1;P1;durP2;ratioP2;P2;SDS_P1;SDS_P2;PMS_P1;PMS_P2;Temp;Humidity;BMP_temperature;BMP_pressure;BME280_temperature;BME280_humidity;BME280_pressure;Samples;Min_cycle;Max_cycle;Signal;HPM_P1;HPM_P2
2021/05/31 00:00:21;;;;;;;12.00;10.43;;;7.40;99.90;;;;;;5048400;28;20771;-55
2021/05/31 00:02:48;;;;;;;10.40;9.30;;;7.40;99.90;;;;;;5048121;28;20191;-52
2021/05/31 00:05:15;;;;;;;12.13;10.37;;;7.40;99.90;;;;;;5049207;28;20511;-56
2021/05/31 00:07:40;;;;;;;12.80;9.97;;;7.30;99.90;;;;;;5048213;28;20477;-53
2021/05/31 00:10:08;;;;;;;11.00;9.90;;;7.30;99.90;;;;;;5041815;28;20933;-54
2021/05/31 00:12:34;;;;;;;12.83;10.53;;;7.30;99.90;;;;;;5047592;28;20203;-54
2021/05/31 00:15:01;;;;;;;11.97;10.37;;;7.20;99.90;;;;;;5048964;28;20457;-54
2021/05/31 00:17:26;;;;;;;12.23;11.00;;;7.10;99.90;;;;;;5047210;28;20434;-55
2021/05/31 00:19:55;;;;;;;11.80;10.57;;;7.10;99.90;;;;;;5045742;28;20438;-55
2021/05/31 00:22:22;;;;;;;12.17;10.50;;;7.00;99.90;;;;;;5047678;28;20947;-55
2021/05/31 00:24:51;;;;;;;11.57;10.38;;;7.00;99.90;;;;;;5044768;28;20481;-56
2021/05/31 00:27:17;;;;;;;12.02;10.73;;;7.00;99.90;;;;;;5049179;28;20182;-53
2021/05/31 00:29:43;;;;;;;14.43;10.73;;;6.90;99.90;;;;;;5047282;28;20527;-55
2021/05/31 00:32:09;;;;;;;12.65;11.32;;;6.90;99.90;;;;;;5054471;28;20178;-54
2021/05/31 00:34:36;;;;;;;12.23;10.93;;;6.90;99.90;;;;;;5051136;28;20222;-54
2021/05/31 00:37:02;;;;;;;12.55;11.25;;;6.90;99.90;;;;;;5055698;28;21019;-55
2021/05/31 00:39:28;;;;;;;13.68;11.45;;;6.90;99.90;;;;;;5053274;28;20581;-53
2021/05/31 00:41:54;;;;;;;12.20;10.77;;;6.90;99.90;;;;;;5055615;28;20197;-54
2021/05/31 00:44:21;;;;;;;13.07;10.70;;;6.90;99.90;;;;;;5052614;28;20544;-53
2021/05/31 00:46:47;;;;;;;13.50;10.70;;;6.90;99.90;;;;;;5055472;28;20465;-54
2021/05/31 00:49:23;;;;;;;12.55;11.23;;;6.80;99.90;;;;;;5054346;28;20436;-57
2021/05/31 00:51:50;;;;;;;13.85;10.27;;;6.80;99.90;;;;;;5049619;28;20166;-51
2021/05/31 00:54:16;;;;;;;13.93;11.57;;;6.80;99.90;;;;;;5054645;28;20317;-55
2021/05/31 00:56:44;;;;;;;12.02;10.68;;;6.80;99.90;;;;;;5058554;28;20564;-53
2021/05/31 00:59:10;;;;;;;12.65;11.05;;;6.90;99.90;;;;;;5054115;28;20194;-53
2021/05/31 01:01:36;;;;;;;15.27;12.00;;;6.90;99.90;;;;;;5055125;28;20177;-55
2021/05/31 01:04:02;;;;;;;12.37;11.10;;;6.90;99.90;;;;;;5053304;28;20661;-55
2021/05/31 01:06:37;;;;;;;13.02;11.23;;;6.80;99.90;;;;;;5054226;28;20179;-54
2021/05/31 01:09:12;;;;;;;12.05;10.38;;;6.80;99.90;;;;;;5054428;28;20183;-53
2021/05/31 01:11:53;;;;;;;12.40;11.02;;;6.80;99.90;;;;;;5055066;28;20176;-56
2021/05/31 01:14:29;;;;;;;12.00;10.60;;;6.80;99.90;;;;;;5053294;28;20182;-53
2021/05/31 01:17:03;;;;;;;13.20;11.52;;;6.80;99.90;;;;;;5054241;28;20407;-50
2021/05/31 01:19:50;;;;;;;13.20;10.93;;;6.70;99.90;;;;;;5052497;28;20193;-52
2021/05/31 01:22:20;;;;;;;13.63;11.07;;;6.70;99.90;;;;;;5054430;28;20174;-53
2021/05/31 01:25:12;;;;;;;13.30;11.70;;;6.60;99.90;;;;;;5054434;28;20525;-53
2021/05/31 01:28:04;;;;;;;14.20;11.30;;;6.60;99.90;;;;;;5053169;28;20591;-55
2021/05/31 01:30:30;;;;;;;13.20;11.50;;;6.60;99.90;;;;;;5053894;28;20598;-52
2021/05/31 01:32:59;;;;;;;13.27;10.77;;;6.60;99.90;;;;;;5054288;28;20276;-53
2021/05/31 01:35:28;;;;;;;11.95;10.32;;;6.50;99.90;;;;;;5054059;28;20756;-51
2021/05/31 01:37:56;;;;;;;12.80;10.73;;;6.50;99.90;;;;;;5054498;28;20191;-56
2021/05/31 01:40:23;;;;;;;13.60;10.75;;;6.50;99.90;;;;;;5055039;28;20182;-54
2021/05/31 01:42:56;;;;;;;13.02;10.10;;;6.40;99.90;;;;;;5051024;28;20182;-52
2021/05/31 01:45:22;;;;;;;13.35;11.05;;;6.40;99.90;;;;;;5051652;28;20207;-55
2021/05/31 01:47:48;;;;;;;12.98;10.95;;;6.40;99.90;;;;;;5048917;28;20232;-53
2021/05/31 01:50:15;;;;;;;13.00;11.00;;;6.40;99.90;;;;;;5051139;28;20181;-54
2021/05/31 01:52:43;;;;;;;11.30;9.75;;;6.30;99.90;;;;;;5054199;28;21002;-53
2021/05/31 01:55:10;;;;;;;13.30;11.25;;;6.40;99.90;;;;;;5051609;28;20197;-54
2021/05/31 01:57:37;;;;;;;13.27;11.07;;;6.30;99.90;;;;;;5049793;28;20183;-53
2021/05/31 02:00:06;;;;;;;13.35;11.45;;;6.30;99.90;;;;;;5051609;28;20196;-53
2021/05/31 02:02:32;;;;;;;12.75;10.63;;;6.30;99.90;;;;;;5048871;28;20178;-55
2021/05/31 02:04:57;;;;;;;11.90;10.55;;;6.30;99.90;;;;;;5050070;28;20202;-53
2021/05/31 02:07:23;;;;;;;12.03;10.70;;;6.30;99.90;;;;;;5049820;28;20914;-53
2021/05/31 02:09:48;;;;;;;13.50;11.00;;;6.20;99.90;;;;;;5051410;28;20236;-54
2021/05/31 02:12:16;;;;;;;12.87;10.40;;;6.20;99.90;;;;;;5049008;28;20179;-53
2021/05/31 02:14:48;;;;;;;13.45;11.18;;;6.20;99.90;;;;;;5050626;28;20170;-55
2021/05/31 02:17:32;;;;;;;13.07;11.02;;;6.20;99.90;;;;;;5049899;28;20569;-53
2021/05/31 02:20:06;;;;;;;14.40;11.65;;;6.20;99.90;;;;;;5048049;28;20182;-52
2021/05/31 02:22:34;;;;;;;12.98;10.70;;;6.10;99.90;;;;;;5047516;28;20185;-53
2021/05/31 02:25:01;;;;;;;13.68;10.45;;;6.10;99.90;;;;;;5050847;28;20202;-53
2021/05/31 02:27:28;;;;;;;14.75;11.10;;;6.10;99.90;;;;;;5045039;28;20189;-51
2021/05/31 02:29:54;;;;;;;15.13;10.75;;;6.10;99.90;;;;;;5052759;28;20526;-50
2021/05/31 02:32:19;;;;;;;12.83;11.30;;;6.00;99.90;;;;;;5049792;28;20182;-53
2021/05/31 02:34:45;;;;;;;13.70;11.13;;;6.00;99.90;;;;;;5050487;28;20268;-52
2021/05/31 02:37:13;;;;;;;13.40;11.13;;;6.00;99.90;;;;;;5054728;28;20668;-53
2021/05/31 02:39:39;;;;;;;11.20;9.52;;;6.00;99.90;;;;;;5045909;28;20593;-51
2021/05/31 02:42:05;;;;;;;13.27;11.23;;;6.00;99.90;;;;;;5037907;28;20178;-55
2021/05/31 02:44:31;;;;;;;12.97;10.40;;;5.90;99.90;;;;;;5050060;28;21326;-55
2021/05/31 02:46:56;;;;;;;14.47;11.33;;;6.00;99.90;;;;;;5050498;28;20440;-50
2021/05/31 02:49:22;;;;;;;13.83;11.87;;;5.90;99.90;;;;;;5048681;28;20320;-54
2021/05/31 02:51:48;;;;;;;15.30;12.23;;;5.90;99.90;;;;;;5049999;28;20189;-52
2021/05/31 02:54:14;;;;;;;13.03;11.50;;;5.90;99.90;;;;;;5048104;28;20304;-50
2021/05/31 02:56:40;;;;;;;15.32;11.95;;;5.90;99.90;;;;;;5050327;28;20634;-54
2021/05/31 02:59:05;;;;;;;15.37;12.70;;;5.90;99.90;;;;;;5047747;28;20204;-49
2021/05/31 03:01:31;;;;;;;16.83;12.57;;;5.90;99.90;;;;;;5050192;28;20197;-51
2021/05/31 03:03:56;;;;;;;15.60;12.50;;;5.90;99.90;;;;;;5047617;28;20205;-53
2021/05/31 03:06:22;;;;;;;13.40;11.57;;;5.90;99.90;;;;;;5048622;28;20178;-52
2021/05/31 03:08:47;;;;;;;13.90;11.30;;;5.90;99.90;;;;;;5036513;28;20650;-53
2021/05/31 03:11:13;;;;;;;14.40;11.83;;;5.80;99.90;;;;;;5031545;28;20186;-53
2021/05/31 03:13:39;;;;;;;14.83;11.57;;;5.80;99.90;;;;;;5048004;28;20797;-53
2021/05/31 03:16:04;;;;;;;15.33;11.57;;;5.80;99.90;;;;;;5049137;28;20182;-53
2021/05/31 03:18:30;;;;;;;15.83;11.53;;;5.80;99.90;;;;;;5048627;28;20442;-51
2021/05/31 03:20:55;;;;;;;13.10;11.80;;;5.80;99.90;;;;;;5048212;28;20197;-53
2021/05/31 03:23:21;;;;;;;15.60;11.63;;;5.80;99.90;;;;;;5048826;28;20168;-52
2021/05/31 03:25:47;;;;;;;14.27;11.90;;;5.70;99.90;;;;;;5049707;28;20280;-55
2021/05/31 03:28:13;;;;;;;15.50;11.97;;;5.70;99.90;;;;;;5047874;28;20197;-53
2021/05/31 03:30:38;;;;;;;13.30;10.63;;;5.70;99.90;;;;;;5049583;28;20981;-53
2021/05/31 03:33:04;;;;;;;15.77;11.57;;;5.70;99.90;;;;;;5048430;28;20456;-53
2021/05/31 03:35:30;;;;;;;14.00;10.90;;;5.70;99.90;;;;;;5047742;28;20167;-53
2021/05/31 03:37:55;;;;;;;15.43;11.70;;;5.70;99.90;;;;;;5048979;28;20539;-53
2021/05/31 03:40:22;;;;;;;13.67;11.70;;;5.60;99.90;;;;;;5050085;28;20178;-54
2021/05/31 03:42:52;;;;;;;14.80;11.70;;;5.70;99.90;;;;;;5047964;28;20315;-51
2021/05/31 03:45:18;;;;;;;16.13;12.15;;;5.70;99.90;;;;;;5048998;28;20344;-55
2021/05/31 03:47:43;;;;;;;14.60;11.57;;;5.70;99.90;;;;;;5048471;28;20872;-52
2021/05/31 03:50:09;;;;;;;16.00;12.20;;;5.70;99.90;;;;;;5048271;28;20189;-52
2021/05/31 03:52:36;;;;;;;16.00;11.60;;;5.70;99.90;;;;;;5047783;28;20707;-55
2021/05/31 03:55:03;;;;;;;13.38;11.02;;;5.70;99.90;;;;;;5048752;28;20205;-55
2021/05/31 03:57:29;;;;;;;16.73;11.57;;;5.70;99.90;;;;;;5048337;28;20214;-52
2021/05/31 03:59:54;;;;;;;15.20;10.80;;;5.80;99.90;;;;;;5048747;28;20178;-53
2021/05/31 04:02:21;;;;;;;14.40;11.17;;;5.80;99.90;;;;;;5046426;28;20201;-53
2021/05/31 04:04:49;;;;;;;15.30;12.20;;;5.80;99.90;;;;;;5047916;28;20206;-54
2021/05/31 04:12:32;;;;;;;14.43;11.35;;;5.90;99.90;;;;;;5048612;28;20648;-48
2021/05/31 04:14:58;;;;;;;14.17;11.73;;;5.90;99.90;;;;;;5047403;28;20191;-53
2021/05/31 04:17:24;;;;;;;14.87;11.40;;;6.00;99.90;;;;;;5047593;28;20178;-51
2021/05/31 04:19:49;;;;;;;14.50;11.33;;;6.10;99.90;;;;;;5048138;28;20224;-50
2021/05/31 04:22:15;;;;;;;14.40;11.23;;;6.10;99.90;;;;;;5042801;28;20197;-55
2021/05/31 04:24:40;;;;;;;14.87;11.67;;;6.20;99.90;;;;;;5038525;28;20206;-51
2021/05/31 04:27:06;;;;;;;16.20;13.17;;;6.20;99.90;;;;;;5038764;28;20190;-53
2021/05/31 04:29:32;;;;;;;14.10;11.47;;;6.30;99.90;;;;;;5039808;28;20184;-51
2021/05/31 04:31:58;;;;;;;16.40;12.30;;;6.40;99.90;;;;;;5038413;28;21032;-56
2021/05/31 04:34:23;;;;;;;14.43;11.38;;;6.40;99.90;;;;;;5036973;28;20212;-53
2021/05/31 04:36:49;;;;;;;15.07;12.33;;;6.40;99.90;;;;;;5039952;28;20264;-53
2021/05/31 04:39:15;;;;;;;14.23;11.57;;;6.40;99.90;;;;;;5036576;28;20624;-55
2021/05/31 04:41:41;;;;;;;13.83;11.17;;;6.50;99.90;;;;;;5047060;28;20224;-52
2021/05/31 04:44:07;;;;;;;14.55;12.20;;;6.60;99.90;;;;;;5046899;28;20194;-57
2021/05/31 04:46:33;;;;;;;14.77;11.05;;;6.60;99.90;;;;;;5048752;28;20185;-53
2021/05/31 04:49:01;;;;;;;15.20;12.40;;;6.60;99.90;;;;;;5048053;28;20194;-57
2021/05/31 04:51:27;;;;;;;12.82;10.90;;;6.70;99.90;;;;;;5049068;28;20424;-54
2021/05/31 04:53:54;;;;;;;13.35;10.90;;;6.70;99.90;;;;;;5049638;28;20543;-53
2021/05/31 04:56:19;;;;;;;11.83;10.30;;;6.80;99.90;;;;;;5048749;28;20638;-53
2021/05/31 04:58:45;;;;;;;11.73;10.00;;;6.80;99.90;;;;;;5046844;28;20423;-55
2021/05/31 05:01:10;;;;;;;11.97;10.53;;;6.90;99.90;;;;;;5046970;28;20847;-54
2021/05/31 05:03:36;;;;;;;12.30;10.33;;;7.00;99.90;;;;;;5048031;28;20265;-52
2021/05/31 05:06:02;;;;;;;11.30;9.83;;;7.00;99.90;;;;;;5048328;28;20186;-52
2021/05/31 05:08:28;;;;;;;10.53;9.33;;;7.00;99.90;;;;;;5048274;28;20254;-56
2021/05/31 05:10:53;;;;;;;11.37;9.90;;;7.10;99.90;;;;;;5048682;28;20424;-52
2021/05/31 05:13:19;;;;;;;10.10;8.63;;;7.20;99.90;;;;;;5048598;28;20578;-54
2021/05/31 05:15:44;;;;;;;10.33;9.00;;;7.30;99.90;;;;;;5047945;28;20192;-51
2021/05/31 05:18:10;;;;;;;10.80;9.50;;;7.30;99.90;;;;;;5051436;28;20887;-53
2021/05/31 05:20:36;;;;;;;11.03;9.10;;;7.30;99.90;;;;;;5052561;28;20191;-55
2021/05/31 05:23:02;;;;;;;11.40;9.97;;;7.40;99.90;;;;;;5052245;28;20181;-56
2021/05/31 05:25:28;;;;;;;14.07;9.47;;;7.40;99.90;;;;;;5051047;28;20776;-55
2021/05/31 05:27:54;;;;;;;12.07;9.27;;;7.60;99.90;;;;;;5051537;28;20447;-54
2021/05/31 05:30:22;;;;;;;10.77;9.53;;;7.60;99.90;;;;;;5051194;28;20415;-49
2021/05/31 05:32:49;;;;;;;10.90;9.43;;;7.70;99.90;;;;;;5047280;28;20416;-50
2021/05/31 05:35:31;;;;;;;11.50;10.30;;;7.80;99.90;;;;;;5055028;28;20413;-50
2021/05/31 05:38:07;;;;;;;10.43;9.10;;;7.80;99.90;;;;;;5049836;28;21107;-51
2021/05/31 05:43:15;;;;;;;10.07;9.07;;;8.10;95.70;;;;;;5051188;28;20466;-50
2021/05/31 05:48:19;;;;;;;10.80;9.47;;;8.30;93.00;;;;;;5051646;28;20464;-58
2021/05/31 05:50:44;;;;;;;9.13;8.10;;;8.40;86.60;;;;;;5054572;28;20448;-57
2021/05/31 05:53:10;;;;;;;9.00;8.10;;;8.50;73.00;;;;;;5046021;28;20232;-57
2021/05/31 05:55:36;;;;;;;11.00;8.43;;;8.60;60.20;;;;;;5050755;28;20189;-55
2021/05/31 05:58:01;;;;;;;10.10;9.00;;;8.70;58.70;;;;;;5044265;28;20204;-58
2021/05/31 06:00:29;;;;;;;9.07;8.10;;;8.90;59.90;;;;;;5051429;28;20243;-54
2021/05/31 06:02:55;;;;;;;9.30;8.33;;;9.00;58.50;;;;;;5050807;28;20984;-52
2021/05/31 06:05:21;;;;;;;9.33;8.43;;;9.10;56.60;;;;;;5042158;28;20536;-53
2021/05/31 06:07:47;;;;;;;8.70;7.87;;;9.20;49.30;;;;;;5044719;28;20971;-57
2021/05/31 06:10:14;;;;;;;9.67;8.67;;;9.30;48.50;;;;;;5050833;28;20508;-54
2021/05/31 06:12:40;;;;;;;9.73;8.73;;;9.30;40.30;;;;;;5050206;28;20185;-54
2021/05/31 06:15:08;;;;;;;8.80;7.93;;;9.40;42.70;;;;;;5050860;28;20422;-53
2021/05/31 06:17:33;;;;;;;9.87;8.17;;;9.50;35.70;;;;;;5050414;28;20187;-54
2021/05/31 06:20:02;;;;;;;10.37;8.17;;;9.60;34.30;;;;;;5052372;28;20444;-56
2021/05/31 06:22:29;;;;;;;9.40;8.50;;;9.70;31.10;;;;;;5043505;28;20206;-59
2021/05/31 06:24:54;;;;;;;9.10;8.27;;;9.80;27.10;;;;;;5049517;28;20538;-56
2021/05/31 06:27:20;;;;;;;9.40;8.30;;;10.00;22.60;;;;;;5048586;28;20820;-53
2021/05/31 06:29:46;;;;;;;8.87;7.97;;;10.10;19.10;;;;;;5048193;28;20178;-59
2021/05/31 06:32:12;;;;;;;9.23;8.23;;;10.10;20.50;;;;;;5049196;28;20171;-55
2021/05/31 06:34:37;;;;;;;8.97;7.93;;;10.30;10.30;;;;;;5048669;28;20440;-57
2021/05/31 06:37:03;;;;;;;8.77;7.87;;;10.50;11.00;;;;;;5050054;28;20228;-56
2021/05/31 06:39:29;;;;;;;8.50;7.60;;;10.60;8.80;;;;;;5049497;28;20185;-52
2021/05/31 06:41:54;;;;;;;8.73;7.93;;;10.80;6.40;;;;;;5048977;28;20190;-57
2021/05/31 06:44:20;;;;;;;8.77;7.97;;;10.90;1.00;;;;;;5049286;28;20223;-56
2021/05/31 06:46:45;;;;;;;8.73;7.93;;;11.00;1.00;;;;;;5049493;28;20181;-54
2021/05/31 06:49:11;;;;;;;9.33;8.53;;;11.20;1.00;;;;;;5049250;28;20603;-54
2021/05/31 06:51:37;;;;;;;9.47;8.43;;;11.30;1.00;;;;;;5049575;28;20261;-51
2021/05/31 06:54:02;;;;;;;8.17;7.37;;;11.50;1.00;;;;;;5048452;28;20283;-56
2021/05/31 06:56:28;;;;;;;9.53;8.50;;;11.60;1.00;;;;;;5042224;28;20193;-50
2021/05/31 06:58:53;;;;;;;8.73;7.83;;;11.80;1.00;;;;;;5048966;28;20243;-50
2021/05/31 07:01:19;;;;;;;8.00;7.20;;;11.90;1.00;;;;;;5049113;28;20217;-49
2021/05/31 07:03:45;;;;;;;8.07;7.33;;;12.10;1.00;;;;;;5048450;28;20269;-52
2021/05/31 07:06:10;;;;;;;7.60;6.90;;;12.30;1.00;;;;;;5049102;28;20178;-52
2021/05/31 07:08:36;;;;;;;8.03;7.23;;;12.40;1.00;;;;;;5049134;28;20205;-56
2021/05/31 07:11:09;;;;;;;8.37;7.47;;;12.60;1.00;;;;;;5048868;28;20262;-53
2021/05/31 07:13:34;;;;;;;7.00;6.40;;;12.70;1.00;;;;;;5048715;28;20176;-54
2021/05/31 07:16:00;;;;;;;8.03;7.33;;;12.80;1.00;;;;;;5048754;28;20416;-54
2021/05/31 07:18:25;;;;;;;8.93;7.37;;;12.90;1.00;;;;;;5048629;28;20188;-57
2021/05/31 07:20:52;;;;;;;7.80;7.10;;;13.00;1.00;;;;;;5048486;28;20625;-53
2021/05/31 07:23:19;;;;;;;7.10;6.17;;;13.00;1.00;;;;;;5048741;28;20181;-53
2021/05/31 07:25:45;;;;;;;8.53;7.77;;;13.10;1.00;;;;;;5048563;28;20518;-53
2021/05/31 07:28:11;;;;;;;7.50;6.70;;;13.20;1.00;;;;;;5048497;28;20515;-51
2021/05/31 07:30:37;;;;;;;8.03;7.23;;;13.40;1.00;;;;;;5047916;28;20876;-53
2021/05/31 07:33:03;;;;;;;8.37;7.60;;;13.60;1.00;;;;;;5048143;28;20175;-55
2021/05/31 07:35:29;;;;;;;7.13;6.53;;;13.70;1.00;;;;;;5050581;28;20814;-52
2021/05/31 07:37:55;;;;;;;8.10;7.40;;;13.80;1.00;;;;;;5047182;28;20511;-54
2021/05/31 07:40:22;;;;;;;8.30;7.50;;;14.00;1.00;;;;;;5048164;28;20176;-52
2021/05/31 07:42:49;;;;;;;8.20;7.40;;;14.30;1.00;;;;;;5048437;28;20267;-55
2021/05/31 07:45:17;;;;;;;8.33;7.63;;;14.50;99.90;;;;;;5047854;28;20460;-57
2021/05/31 07:47:43;;;;;;;7.70;7.00;;;14.60;99.90;;;;;;5047740;28;20438;-54
2021/05/31 07:50:09;;;;;;;6.70;6.20;;;14.80;1.00;;;;;;5048033;28;20424;-57
2021/05/31 07:52:36;;;;;;;7.70;7.00;;;14.90;1.00;;;;;;5048108;28;20188;-54
2021/05/31 07:55:03;;;;;;;7.93;7.23;;;15.10;1.00;;;;;;5048461;28;20527;-58
2021/05/31 07:57:29;;;;;;;7.13;6.50;;;15.30;1.00;;;;;;5048223;28;20424;-51
2021/05/31 07:59:54;;;;;;;6.93;6.13;;;15.50;12.70;;;;;;5047932;28;20425;-54
2021/05/31 08:02:20;;;;;;;9.37;6.70;;;15.70;99.90;;;;;;5047808;28;20185;-51
2021/05/31 08:04:46;;;;;;;6.90;6.40;;;15.80;1.00;;;;;;5048288;28;20210;-51
2021/05/31 08:07:11;;;;;;;7.00;6.50;;;16.00;1.00;;;;;;5047569;28;20186;-54
2021/05/31 08:09:38;;;;;;;6.17;5.67;;;16.10;1.00;;;;;;5048726;28;20200;-53
2021/05/31 08:12:06;;;;;;;6.47;5.90;;;16.30;1.00;;;;;;5041356;28;20428;-52
2021/05/31 08:14:31;;;;;;;7.63;6.93;;;16.50;1.00;;;;;;5047753;28;20419;-49
2021/05/31 08:16:57;;;;;;;7.53;6.83;;;16.50;1.00;;;;;;5047013;28;20443;-52
2021/05/31 08:19:25;;;;;;;6.80;6.20;;;16.70;1.00;;;;;;5047749;28;20274;-52
2021/05/31 08:21:52;;;;;;;6.80;6.30;;;16.90;99.90;;;;;;5047549;28;20213;-52
2021/05/31 08:24:19;;;;;;;7.20;6.50;;;17.00;1.00;;;;;;5045113;28;20452;-50
2021/05/31 08:26:45;;;;;;;6.70;6.20;;;17.20;37.50;;;;;;5047676;28;20780;-51
2021/05/31 08:29:11;;;;;;;7.40;6.80;;;17.30;18.10;;;;;;5046937;28;20431;-52
2021/05/31 08:31:37;;;;;;;7.07;6.57;;;17.50;2.10;;;;;;5047576;28;20415;-51
2021/05/31 08:34:03;;;;;;;5.77;5.37;;;17.60;68.50;;;;;;5046709;28;20440;-54
2021/05/31 08:36:28;;;;;;;6.10;5.60;;;17.70;99.90;;;;;;5060847;28;20296;-52
2021/05/31 08:38:58;;;;;;;7.40;5.87;;;17.80;1.00;;;;;;5047903;28;20176;-52
2021/05/31 08:41:24;;;;;;;5.30;5.00;;;18.00;1.00;;;;;;5047803;28;20173;-53
2021/05/31 08:43:50;;;;;;;5.83;5.33;;;18.10;99.90;;;;;;5043411;28;20438;-53
2021/05/31 08:46:16;;;;;;;5.43;4.93;;;18.20;1.00;;;;;;5045459;28;20938;-52
2021/05/31 08:48:42;;;;;;;5.50;5.10;;;18.20;99.90;;;;;;5047197;28;20181;-52
2021/05/31 08:51:07;;;;;;;5.10;4.70;;;18.30;54.60;;;;;;5046833;28;20275;-54
2021/05/31 08:53:35;;;;;;;5.73;5.23;;;18.40;1.00;;;;;;5051592;28;20503;-51
2021/05/31 08:56:00;;;;;;;5.80;5.30;;;18.40;1.00;;;;;;5051405;28;20256;-50
2021/05/31 08:58:26;;;;;;;5.23;4.83;;;18.60;1.00;;;;;;5053087;28;20471;-51
2021/05/31 09:00:51;;;;;;;5.10;4.80;;;18.80;1.00;;;;;;5052290;28;20582;-53
2021/05/31 09:03:18;;;;;;;5.00;4.70;;;19.20;1.00;;;;;;5055589;28;20182;-51
2021/05/31 09:05:45;;;;;;;5.50;5.10;;;19.40;1.00;;;;;;5052975;28;20205;-51
2021/05/31 09:08:19;;;;;;;6.13;5.57;;;19.50;1.00;;;;;;5053564;28;20462;-54
2021/05/31 09:10:54;;;;;;;5.97;5.43;;;19.60;1.00;;;;;;5050630;28;20450;-53
2021/05/31 09:13:38;;;;;;;5.70;5.30;;;19.70;1.00;;;;;;5052243;28;20506;-53
2021/05/31 09:16:09;;;;;;;5.50;5.10;;;19.80;1.00;;;;;;5051295;28;20416;-55
2021/05/31 09:18:37;;;;;;;5.40;5.00;;;20.10;99.90;;;;;;5052275;28;20460;-51
2021/05/31 09:21:25;;;;;;;6.10;5.70;;;20.50;1.00;;;;;;5052214;28;20423;-55
2021/05/31 09:24:04;;;;;;;5.73;5.23;;;21.10;1.00;;;;;;5049731;28;20419;-52
2021/05/31 09:26:30;;;;;;;5.40;5.00;;;22.10;99.90;;;;;;5042975;28;20545;-54
2021/05/31 09:29:01;;;;;;;11.60;4.77;;;23.00;99.90;;;;;;5052544;28;21011;-53
2021/05/31 09:31:29;;;;;;;5.50;5.20;;;23.30;99.90;;;;;;5040236;28;20408;-52
2021/05/31 09:34:06;;;;;;;5.90;5.50;;;23.20;99.90;;;;;;5049674;28;20993;-52
2021/05/31 09:36:53;;;;;;;5.17;4.87;;;23.00;99.90;;;;;;5052235;28;20435;-53
2021/05/31 09:39:30;;;;;;;5.00;4.60;;;22.60;99.90;;;;;;5051671;28;20823;-54
2021/05/31 09:42:06;;;;;;;5.80;5.40;;;22.30;99.90;;;;;;5052510;28;20435;-54
2021/05/31 09:44:32;;;;;;;5.33;5.03;;;22.00;99.90;;;;;;5051153;28;20463;-51
2021/05/31 09:46:57;;;;;;;5.63;5.23;;;22.10;99.90;;;;;;5052462;28;20507;-51
2021/05/31 09:49:26;;;;;;;5.43;5.13;;;22.30;99.90;;;;;;5050623;28;20294;-52
2021/05/31 09:52:08;;;;;;;5.30;5.03;;;22.40;99.90;;;;;;5051771;28;20182;-53
2021/05/31 09:54:39;;;;;;;5.70;5.10;;;22.50;99.90;;;;;;5051820;28;20472;-52
2021/05/31 09:57:20;;;;;;;5.43;4.93;;;23.10;99.90;;;;;;5051281;28;20505;-54
2021/05/31 09:59:48;;;;;;;5.70;5.40;;;23.90;99.90;;;;;;5050835;28;20459;-55
2021/05/31 10:02:19;;;;;;;5.50;5.10;;;24.10;99.90;;;;;;5049379;28;20434;-49
2021/05/31 10:09:45;;;;;;;5.10;4.70;;;26.40;99.90;;;;;;5050354;28;20213;-56
2021/05/31 10:12:11;;;;;;;5.67;5.27;;;27.40;99.90;;;;;;5049944;28;20825;-55
2021/05/31 10:14:38;;;;;;;5.00;4.60;;;27.90;99.90;;;;;;5049682;28;20505;-52
2021/05/31 10:17:04;;;;;;;5.40;5.00;;;27.80;99.90;;;;;;5050057;28;20668;-59
2021/05/31 10:19:31;;;;;;;5.00;4.70;;;27.80;99.90;;;;;;5050129;28;20428;-56
2021/05/31 10:21:57;;;;;;;5.00;4.70;;;28.50;99.90;;;;;;5048597;28;20493;-51
2021/05/31 10:24:23;;;;;;;5.60;5.20;;;28.50;99.90;;;;;;5048865;28;20530;-56
2021/05/31 10:26:49;;;;;;;5.33;4.93;;;27.80;99.90;;;;;;5050308;28;20182;-54
2021/05/31 10:29:15;;;;;;;5.33;5.03;;;27.00;99.90;;;;;;5050418;28;20428;-58
2021/05/31 10:31:45;;;;;;;5.20;4.90;;;26.20;99.90;;;;;;5049059;28;20523;-59
2021/05/31 10:34:22;;;;;;;6.20;5.60;;;26.40;99.90;;;;;;5049911;28;20640;-52
2021/05/31 10:36:51;;;;;;;5.97;5.57;;;26.80;99.90;;;;;;5058799;28;20467;-56
2021/05/31 10:39:27;;;;;;;5.50;5.10;;;27.50;99.90;;;;;;5049349;28;20420;-53
2021/05/31 10:42:04;;;;;;;7.97;5.67;;;28.10;99.90;;;;;;5049229;28;20431;-54
2021/05/31 10:44:31;;;;;;;6.53;6.03;;;28.90;99.90;;;;;;5045185;28;20465;-56
2021/05/31 10:47:09;;;;;;;6.30;5.90;;;29.70;99.90;;;;;;5049853;28;20429;-55
2021/05/31 10:49:34;;;;;;;5.90;5.60;;;29.80;99.90;;;;;;5049123;28;20432;-56
2021/05/31 10:52:00;;;;;;;5.80;5.50;;;30.30;99.90;;;;;;5049149;28;20420;-56
2021/05/31 10:54:33;;;;;;;5.87;5.53;;;30.40;99.90;;;;;;5049072;28;20225;-57
2021/05/31 10:57:07;;;;;;;5.80;5.30;;;30.70;99.90;;;;;;5049291;28;20554;-54
2021/05/31 10:59:33;;;;;;;5.60;5.30;;;31.10;99.90;;;;;;5039772;28;20909;-54
2021/05/31 11:01:59;;;;;;;5.47;5.10;;;30.60;99.90;;;;;;5039784;28;20428;-59
2021/05/31 11:04:26;;;;;;;5.57;5.27;;;30.70;99.90;;;;;;5049074;28;20206;-57
2021/05/31 11:06:54;;;;;;;5.47;5.17;;;30.50;99.90;;;;;;5049005;28;20412;-57
2021/05/31 11:09:29;;;;;;;5.80;5.20;;;29.70;99.90;;;;;;5049316;28;20512;-56
2021/05/31 11:11:57;;;;;;;6.17;5.73;;;29.90;99.90;;;;;;5049304;28;20508;-54
2021/05/31 11:14:33;;;;;;;5.40;5.10;;;29.80;99.90;;;;;;5048547;28;20420;-55
2021/05/31 11:17:22;;;;;;;6.03;5.70;;;30.20;99.90;;;;;;5054943;28;20440;-54
2021/05/31 11:19:52;;;;;;;5.57;5.27;;;29.90;99.90;;;;;;5043692;28;20440;-55
2021/05/31 11:22:26;;;;;;;5.20;4.90;;;30.50;99.90;;;;;;5047713;28;20958;-55
2021/05/31 11:25:06;;;;;;;5.50;5.20;;;31.20;99.90;;;;;;5047228;28;20575;-57
2021/05/31 11:27:35;;;;;;;5.50;5.10;;;31.80;99.90;;;;;;5048512;28;20784;-55
2021/05/31 11:30:15;;;;;;;5.77;5.37;;;32.10;99.90;;;;;;5048743;28;20458;-49
2021/05/31 11:32:41;;;;;;;6.20;5.80;;;32.20;99.90;;;;;;5048203;28;20432;-56
2021/05/31 11:35:09;;;;;;;5.70;5.40;;;32.80;99.90;;;;;;5049583;28;20936;-56
2021/05/31 11:37:35;;;;;;;6.00;5.57;;;32.70;99.90;;;;;;5048440;28;20190;-55
2021/05/31 11:40:03;;;;;;;5.37;4.97;;;31.80;99.90;;;;;;5047989;28;20420;-53
2021/05/31 11:42:29;;;;;;;5.73;5.43;;;30.90;99.90;;;;;;5047597;28;20193;-56
2021/05/31 11:44:57;;;;;;;5.13;4.67;;;30.60;99.90;;;;;;5048072;28;20490;-54
2021/05/31 11:47:25;;;;;;;5.90;5.50;;;31.10;99.90;;;;;;5046736;28;20623;-54
2021/05/31 11:49:52;;;;;;;5.10;4.70;;;31.30;99.90;;;;;;5048266;28;20507;-56
2021/05/31 11:52:19;;;;;;;5.23;5.00;;;31.60;99.90;;;;;;5047608;28;20930;-54
2021/05/31 11:54:45;;;;;;;5.70;5.40;;;31.50;99.90;;;;;;5048004;28;20502;-56
2021/05/31 11:57:13;;;;;;;5.47;5.17;;;32.50;99.90;;;;;;5047803;28;20416;-52
2021/05/31 11:59:44;;;;;;;5.67;5.27;;;33.40;99.90;;;;;;5047762;28;20419;-59
2021/05/31 12:02:15;;;;;;;5.17;4.87;;;33.60;99.90;;;;;;5047455;28;20793;-57
2021/05/31 12:04:45;;;;;;;5.00;4.70;;;32.30;99.90;;;;;;5046003;28;20472;-55
2021/05/31 12:07:13;;;;;;;5.40;5.03;;;31.20;99.90;;;;;;5047478;28;20484;-54
2021/05/31 12:09:42;;;;;;;5.57;5.27;;;29.80;99.90;;;;;;5047580;28;20491;-54
2021/05/31 12:12:09;;;;;;;5.70;5.30;;;29.00;99.90;;;;;;5042882;28;20439;-56
2021/05/31 12:14:46;;;;;;;5.50;5.20;;;28.20;99.90;;;;;;5040714;28;20420;-58
2021/05/31 12:17:12;;;;;;;5.60;5.30;;;27.70;99.90;;;;;;5043669;28;20443;-55
2021/05/31 12:19:39;;;;;;;5.50;5.20;;;27.50;99.90;;;;;;5048125;28;20534;-56
2021/05/31 12:22:05;;;;;;;5.73;5.33;;;28.20;99.90;;;;;;5047798;28;20904;-56
2021/05/31 12:24:33;;;;;;;6.17;5.77;;;29.20;99.90;;;;;;5047507;28;20591;-57
2021/05/31 12:27:00;;;;;;;6.00;5.50;;;29.70;99.90;;;;;;5047363;28;20447;-56
2021/05/31 12:29:43;;;;;;;5.53;5.13;;;30.30;99.90;;;;;;5047566;28;20420;-55
2021/05/31 12:32:11;;;;;;;5.20;4.90;;;31.00;99.90;;;;;;5047397;28;20419;-59
2021/05/31 12:34:38;;;;;;;5.30;5.00;;;31.50;99.90;;;;;;5046554;28;20428;-57
2021/05/31 12:37:10;;;;;;;5.20;5.00;;;32.60;99.90;;;;;;5050240;28;20446;-55
2021/05/31 12:39:45;;;;;;;5.50;5.20;;;33.50;99.90;;;;;;5046573;28;20922;-52
2021/05/31 12:42:11;;;;;;;5.43;5.10;;;33.10;99.90;;;;;;5048071;28;20426;-55
2021/05/31 12:44:37;;;;;;;5.30;5.00;;;32.70;99.90;;;;;;5048043;28;20520;-53
2021/05/31 12:47:11;;;;;;;5.40;5.10;;;32.10;99.90;;;;;;5047177;28;20424;-58
2021/05/31 12:49:51;;;;;;;5.67;5.37;;;30.90;99.90;;;;;;5048204;28;20417;-55
2021/05/31 12:52:28;;;;;;;6.07;5.67;;;30.10;99.90;;;;;;5053504;28;20431;-55
2021/05/31 12:55:06;;;;;;;6.10;5.70;;;29.50;99.90;;;;;;5047986;28;20436;-53
2021/05/31 12:57:40;;;;;;;5.90;5.60;;;29.10;99.90;;;;;;5047420;28;20759;-51
2021/05/31 13:00:11;;;;;;;6.00;5.60;;;28.70;99.90;;;;;;5048014;28;20761;-59
2021/05/31 13:02:43;;;;;;;5.77;5.37;;;29.10;99.90;;;;;;5052510;28;20463;-53
2021/05/31 13:05:12;;;;;;;5.60;5.17;;;30.00;99.90;;;;;;5043692;28;20472;-55